Time;durP1;ratioP1;P1;durP2;ratioP2;P2;SDS_P1;SDS_P2;PMS_P1;PMS_P2;Temp;Humidity;BMP_temperature;BMP_pressure;BME280_temperature;BME280_humidity;BME280_pressure;Samples;Min_cycle;Max_cycle;Signal;HPM_P1;HPM_P2
2022/08/15 00:03:27;;;;;;;14.68;10.63;;;;;;;21.64;100.00;99380.09;2891671;80;21045;-93
2022/08/15 00:07:28;;;;;;;13.75;11.12;;;;;;;21.47;100.00;99371.70;2885237;80;21449;-94
2022/08/15 00:11:38;;;;;;;12.80;11.35;;;;;;;21.26;100.00;99367.48;2888125;81;21005;-89
2022/08/15 00:15:39;;;;;;;13.68;11.00;;;;;;;21.05;100.00;99364.62;2885342;80;21072;-91
2022/08/15 00:19:47;;;;;;;12.05;10.43;;;;;;;20.94;100.00;99368.84;2857305;82;21038;-89
2022/08/15 00:23:49;;;;;;;15.85;12.18;;;;;;;20.85;100.00;99370.13;2891448;80;21015;-93
2022/08/15 00:27:51;;;;;;;11.55;10.30;;;;;;;20.92;100.00;99366.34;2890876;80;20986;-93
2022/08/15 00:31:53;;;;;;;12.90;8.93;;;;;;;20.85;100.00;99368.27;2893880;82;20982;-94
2022/08/15 00:35:55;;;;;;;12.88;11.10;;;;;;;20.85;100.00;99373.67;2874167;82;21019;-92
2022/08/15 00:39:56;;;;;;;12.10;8.53;;;;;;;20.84;100.00;99367.95;2893991;80;21565;-93
2022/08/15 00:43:59;;;;;;;13.18;10.13;;;;;;;20.91;100.00;99376.84;2887574;81;21025;-95
2022/08/15 00:52:26;;;;;;;16.50;12.43;;;;;;;20.72;100.00;99384.50;2760921;84;21008;-92
2022/08/15 00:56:36;;;;;;;16.80;11.25;;;;;;;20.62;100.00;99395.23;2824184;83;21024;-96
2022/08/15 01:00:43;;;;;;;24.90;10.43;;;;;;;20.65;100.00;99389.42;2827908;83;21684;-94
2022/08/15 01:04:45;;;;;;;12.07;9.08;;;;;;;20.77;100.00;99389.58;2831551;83;20981;-89
2022/08/15 01:08:47;;;;;;;13.93;11.03;;;;;;;20.85;100.00;99390.39;2830894;83;21049;-92
2022/08/15 01:12:49;;;;;;;15.25;11.90;;;;;;;20.88;100.00;99379.14;2815351;83;21004;-92
2022/08/15 01:16:52;;;;;;;13.25;11.83;;;;;;;20.84;100.00;99374.72;2835314;82;21056;-94
2022/08/15 01:20:54;;;;;;;15.48;12.33;;;;;;;20.88;100.00;99366.48;2845751;82;21037;-93
2022/08/15 01:25:13;;;;;;;14.07;10.72;;;;;;;20.91;100.00;99372.80;2815873;83;21020;-95
2022/08/15 01:29:17;;;;;;;15.40;13.28;;;;;;;20.92;100.00;99363.64;2789464;83;23843;-92
2022/08/15 01:33:19;;;;;;;15.38;12.88;;;;;;;20.87;100.00;99359.92;2840465;82;21381;-89
2022/08/15 01:37:22;;;;;;;14.45;12.45;;;;;;;20.81;100.00;99362.96;2829126;83;21025;-92
2022/08/15 01:41:46;;;;;;;21.90;11.83;;;;;;;20.75;100.00;99368.70;2778930;83;20996;-89
2022/08/15 01:45:48;;;;;;;12.60;10.68;;;;;;;20.75;100.00;99366.50;2837945;82;20993;-95
2022/08/15 01:50:07;;;;;;;15.88;10.23;;;;;;;20.73;100.00;99358.59;2818359;82;21035;-93
2022/08/15 01:54:12;;;;;;;21.55;9.13;;;;;;;20.59;100.00;99360.54;2831928;83;21144;-93
2022/08/15 01:58:14;;;;;;;22.60;10.98;;;;;;;20.56;100.00;99360.97;2832369;82;21000;-94
2022/08/15 02:02:16;;;;;;;31.55;12.93;;;;;;;20.52;100.00;99361.10;2824048;83;21461;-89
2022/08/15 02:06:25;;;;;;;45.10;14.75;;;;;;;20.52;100.00;99354.34;2840916;81;21073;-96
2022/08/15 02:10:27;;;;;;;41.50;10.23;;;;;;;20.55;100.00;99347.16;2828705;82;21607;-91
2022/08/15 02:14:31;;;;;;;27.90;10.72;;;;;;;20.53;100.00;99347.90;2850557;82;20985;-93
2022/08/15 02:18:32;;;;;;;35.78;11.63;;;;;;;20.56;100.00;99346.12;2839227;82;21004;-95
2022/08/15 02:22:34;;;;;;;46.85;11.80;;;;;;;20.58;100.00;99347.27;2808629;83;20989;-93
2022/08/15 02:26:35;;;;;;;34.83;10.93;;;;;;;20.57;100.00;99342.91;2832746;82;21032;-92
2022/08/15 02:30:37;;;;;;;37.55;11.05;;;;;;;20.59;100.00;99341.62;2786137;84;20970;-92
2022/08/15 02:34:41;;;;;;;40.12;10.78;;;;;;;20.61;100.00;99331.44;2711127;85;21033;-91
2022/08/15 02:38:45;;;;;;;24.47;9.70;;;;;;;20.59;100.00;99324.61;2833098;82;21650;-93
2022/08/15 02:42:47;;;;;;;21.70;11.50;;;;;;;20.60;100.00;99325.72;2766414;84;20972;-90
2022/08/15 02:46:51;;;;;;;26.37;10.25;;;;;;;20.60;100.00;99333.83;2786081;84;20990;-92
2022/08/15 02:50:53;;;;;;;20.40;11.43;;;;;;;20.65;100.00;99321.88;2803329;84;21020;-91
2022/08/15 02:54:56;;;;;;;24.85;11.85;;;;;;;20.68;100.00;99317.89;2828767;82;21645;-92
2022/08/15 02:58:57;;;;;;;25.60;12.18;;;;;;;20.73;100.00;99325.36;2829610;82;21008;-95
2022/08/15 03:03:06;;;;;;;31.05;12.15;;;;;;;20.75;100.00;99323.27;2824894;84;21024;-93
2022/08/15 03:07:08;;;;;;;28.10;14.93;;;;;;;20.76;100.00;99324.92;2807807;84;21000;-91
2022/08/15 03:11:10;;;;;;;20.00;12.88;;;;;;;20.72;100.00;99326.41;2823958;82;21005;-92
2022/08/15 03:15:12;;;;;;;23.62;15.23;;;;;;;20.68;100.00;99316.03;2818781;82;21591;-95
2022/08/15 03:19:18;;;;;;;32.45;15.45;;;;;;;20.73;100.00;99309.15;2828149;82;20997;-95
2022/08/15 03:23:24;;;;;;;29.75;14.15;;;;;;;20.76;100.00;99310.06;2886144;80;21014;-93
2022/08/15 03:27:25;;;;;;;20.72;12.60;;;;;;;20.82;100.00;99307.86;2894653;80;21034;-92
2022/08/15 03:31:26;;;;;;;27.27;16.85;;;;;;;20.90;100.00;99298.16;2898445;80;20975;-92
2022/08/15 03:35:32;;;;;;;22.70;14.60;;;;;;;21.00;100.00;99292.27;2896205;81;21026;-94
2022/08/15 03:39:33;;;;;;;20.02;14.45;;;;;;;21.09;100.00;99299.59;2877595;82;20985;-94
2022/08/15 03:43:37;;;;;;;23.47;15.70;;;;;;;21.14;100.00;99303.00;2879770;81;21608;-91
2022/08/15 03:47:38;;;;;;;17.98;13.72;;;;;;;21.12;100.00;99302.67;2879205;81;21113;-93
2022/08/15 03:51:40;;;;;;;18.62;14.73;;;;;;;21.19;100.00;99301.81;2865969;81;21011;-92
2022/08/15 03:55:42;;;;;;;19.62;13.43;;;;;;;21.26;100.00;99303.42;2889766;80;21006;-95
2022/08/15 03:59:43;;;;;;;22.73;13.85;;;;;;;21.34;100.00;99307.73;2893490;80;20991;-86
2022/08/15 04:03:47;;;;;;;19.52;15.75;;;;;;;21.42;100.00;99308.48;2894952;80;21002;-87
2022/08/15 04:07:49;;;;;;;20.88;14.43;;;;;;;21.54;100.00;99307.54;2922940;80;21009;-91
2022/08/15 04:11:50;;;;;;;16.95;12.35;;;;;;;21.61;100.00;99307.48;2896392;81;21038;-87
2022/08/15 04:15:54;;;;;;;18.80;12.15;;;;;;;21.52;100.00;99304.23;2841091;82;21059;-92
2022/08/15 04:19:56;;;;;;;14.90;11.63;;;;;;;21.55;100.00;99302.42;2849362;82;20974;-91
2022/08/15 04:23:58;;;;;;;20.48;16.93;;;;;;;21.61;100.00;99302.58;2794348;83;21038;-90
2022/08/15 04:28:03;;;;;;;16.00;12.85;;;;;;;21.66;100.00;99296.03;2804058;81;21046;-92
2022/08/15 04:32:05;;;;;;;17.17;13.75;;;;;;;21.64;100.00;99303.52;2897189;81;21045;-92
2022/08/15 04:36:11;;;;;;;17.85;15.75;;;;;;;21.62;100.00;99302.38;2880917;81;21006;-92
2022/08/15 04:40:14;;;;;;;16.90;13.88;;;;;;;21.51;100.00;99299.03;2821053;80;21022;-93
2022/08/15 04:44:15;;;;;;;17.05;14.98;;;;;;;21.47;100.00;99300.02;2868897;81;21651;-93
2022/08/15 04:48:18;;;;;;;20.57;15.60;;;;;;;21.46;100.00;99306.48;2886955;81;21022;-93
2022/08/15 04:52:21;;;;;;;19.27;15.85;;;;;;;21.54;100.00;99300.77;2882419;81;21041;-95
2022/08/15 04:56:22;;;;;;;19.35;14.87;;;;;;;21.59;100.00;99302.82;2891980;80;20993;-90
2022/08/15 05:00:29;;;;;;;19.90;13.55;;;;;;;21.66;100.00;99299.55;2768940;80;21602;-91
2022/08/15 05:04:31;;;;;;;18.50;14.40;;;;;;;21.74;100.00;99305.20;2895657;81;20994;-92
2022/08/15 05:08:37;;;;;;;19.95;14.68;;;;;;;21.86;100.00;99299.05;2879920;81;20998;-88
2022/08/15 05:12:39;;;;;;;20.10;14.55;;;;;;;21.96;100.00;99296.64;2897772;81;20996;-91
2022/08/15 05:16:40;;;;;;;22.02;18.23;;;;;;;21.97;100.00;99295.59;2899123;81;20955;-91
2022/08/15 05:20:43;;;;;;;20.48;16.82;;;;;;;21.92;100.00;99301.70;2892360;80;21014;-93
2022/08/15 05:24:44;;;;;;;23.47;18.87;;;;;;;21.92;100.00;99297.64;2861454;81;21021;-87
2022/08/15 05:28:46;;;;;;;24.35;19.02;;;;;;;21.95;100.00;99304.46;2784935;81;20967;-92
2022/08/15 05:32:48;;;;;;;21.62;17.40;;;;;;;21.98;100.00;99305.36;2896775;81;21053;-91
2022/08/15 05:36:49;;;;;;;25.92;17.87;;;;;;;21.96;100.00;99300.70;2884159;81;21008;-93
2022/08/15 05:41:00;;;;;;;24.35;19.20;;;;;;;21.94;100.00;99296.04;2884220;80;20997;-92
2022/08/15 05:45:17;;;;;;;27.52;18.98;;;;;;;21.93;100.00;99302.00;2895547;80;21014;-95
2022/08/15 05:49:45;;;;;;;24.50;20.45;;;;;;;21.89;100.00;99303.47;2827626;83;21504;-91
2022/08/15 05:54:15;;;;;;;26.35;18.52;;;;;;;21.95;100.00;99304.46;2795399;83;21035;-94
2022/08/15 05:58:45;;;;;;;22.00;17.98;;;;;;;22.02;100.00;99294.41;2757216;83;20971;-93
2022/08/15 06:03:09;;;;;;;22.40;17.80;;;;;;;21.97;100.00;99294.23;2796278;83;21398;-93
2022/08/15 06:07:14;;;;;;;19.30;14.80;;;;;;;22.01;100.00;99291.40;2748605;85;21028;-91
2022/08/15 06:11:26;;;;;;;18.48;14.40;;;;;;;22.14;100.00;99286.86;2743759;83;20979;-93
2022/08/15 06:15:32;;;;;;;21.62;16.97;;;;;;;22.29;100.00;99291.38;2752265;83;21077;-95
2022/08/15 06:19:39;;;;;;;16.17;12.95;;;;;;;22.38;100.00;99294.05;2797175;83;21002;-89
2022/08/15 06:23:55;;;;;;;19.52;14.55;;;;;;;22.53;100.00;99292.86;2812468;83;21102;-90
2022/08/15 06:28:17;;;;;;;17.62;15.23;;;;;;;22.68;100.00;99291.09;2794035;84;21014;-94
2022/08/15 06:32:47;;;;;;;19.98;15.98;;;;;;;22.87;100.00;99298.65;2733358;86;21089;-94
2022/08/15 06:37:06;;;;;;;22.00;16.73;;;;;;;23.04;100.00;99307.48;2766767;84;21015;-91
2022/08/15 06:41:37;;;;;;;19.23;15.25;;;;;;;23.16;100.00;99315.09;2630407;89;21045;-91
2022/08/15 06:45:45;;;;;;;17.50;15.00;;;;;;;23.24;100.00;99307.15;2636056;89;21075;-90
2022/08/15 06:49:52;;;;;;;19.40;13.90;;;;;;;23.42;100.00;99303.56;2635021;87;21001;-93
2022/08/15 06:53:58;;;;;;;18.07;15.78;;;;;;;23.64;100.00;99302.97;2634152;87;21064;-92
2022/08/15 06:58:14;;;;;;;15.23;13.10;;;;;;;23.80;100.00;99300.06;2631696;89;21049;-90
2022/08/15 07:02:48;;;;;;;17.95;15.38;;;;;;;23.99;100.00;99304.84;2620572;89;21044;-94
2022/08/15 07:24:09;;;;;;;19.05;16.95;;;;;;;25.05;100.00;99311.53;2699059;86;66824;-96
2022/08/15 07:28:11;;;;;;;22.67;17.35;;;;;;;25.37;99.62;99306.90;2692528;86;21027;-94
2022/08/15 07:32:27;;;;;;;22.87;17.23;;;;;;;25.61;97.19;99304.83;2691613;86;20979;-88
2022/08/15 07:36:33;;;;;;;19.35;15.35;;;;;;;25.78;97.41;99299.37;2694896;86;21035;-93
2022/08/15 07:45:01;;;;;;;19.60;16.87;;;;;;;26.06;93.39;99305.72;2725943;85;21112;-66
2022/08/15 07:49:16;;;;;;;21.43;17.43;;;;;;;26.23;93.23;99302.15;2885644;80;20991;-66
2022/08/15 07:53:23;;;;;;;22.62;18.12;;;;;;;26.46;93.10;99299.70;2913108;80;21195;-65
2022/08/15 07:57:36;;;;;;;23.98;17.82;;;;;;;26.68;89.96;99294.75;2798115;82;20957;-67
2022/08/15 08:01:39;;;;;;;24.65;17.62;;;;;;;26.80;90.47;99291.86;2866713;79;70340;-87
2022/08/15 08:06:07;;;;;;;19.32;15.93;;;;;;;26.91;89.21;99278.61;2926533;79;21111;-88
2022/08/15 08:14:48;;;;;;;17.60;13.38;;;;;;;27.29;88.79;99280.03;2907366;79;68292;-95
2022/08/15 08:19:24;;;;;;;17.02;13.80;;;;;;;27.48;86.93;99280.98;2873638;80;71946;-66
2022/08/15 08:47:00;;;;;;;12.28;10.85;;;;;;;29.21;77.62;99277.48;2868881;81;21043;-67
2022/08/15 08:51:21;;;;;;;10.98;9.88;;;;;;;29.44;76.38;99269.81;2666972;87;21007;-67
2022/08/15 08:55:55;;;;;;;12.58;11.20;;;;;;;29.28;73.37;99248.45;2679185;87;21000;-64
2022/08/15 09:05:33;;;;;;;10.05;9.03;;;;;;;29.45;71.66;99257.75;2710216;87;20963;-67
2022/08/15 09:09:40;;;;;;;12.73;10.72;;;;;;;29.54;70.38;99258.02;2690565;87;21038;-65
2022/08/15 09:13:45;;;;;;;11.85;10.63;;;;;;;29.70;72.34;99259.34;2649505;89;21010;-65
2022/08/15 09:17:52;;;;;;;9.05;8.13;;;;;;;29.85;71.25;99257.09;2703039;87;21024;-67
2022/08/15 09:22:13;;;;;;;9.83;8.80;;;;;;;29.99;71.06;99255.41;2712737;86;20996;-66
2022/08/15 09:26:40;;;;;;;10.05;8.38;;;;;;;30.10;68.94;99264.44;2761579;83;21072;-65
2022/08/15 09:30:42;;;;;;;9.58;8.58;;;;;;;30.04;67.51;99261.45;2857544;83;20958;-64
2022/08/15 09:35:20;;;;;;;10.40;9.18;;;;;;;30.19;65.38;99254.53;2889246;81;21005;-65
2022/08/15 09:39:59;;;;;;;10.53;9.48;;;;;;;30.28;66.95;99260.79;2890827;81;21630;-64
2022/08/15 09:49:34;;;;;;;9.25;8.25;;;;;;;30.52;67.38;99253.23;2896682;81;20961;-65
2022/08/15 10:04:12;;;;;;;18.48;16.40;;;;;;;30.71;63.89;99243.83;2911806;82;20979;-66
2022/08/15 10:08:15;;;;;;;12.47;10.63;;;;;;;30.72;65.11;99233.11;2907389;82;21023;-66
2022/08/15 10:17:41;;;;;;;10.28;9.10;;;;;;;30.73;64.22;99230.63;2861783;83;21028;-66
2022/08/15 10:21:49;;;;;;;11.55;10.18;;;;;;;30.81;65.61;99220.40;2899821;82;21023;-65
2022/08/15 10:26:18;;;;;;;68.50;49.55;;;;;;;30.85;64.06;99220.08;2901542;82;20956;-67
2022/08/15 10:30:24;;;;;;;40.70;34.13;;;;;;;30.88;65.17;99205.81;2877621;82;20977;-64
2022/08/15 10:34:52;;;;;;;13.38;11.90;;;;;;;30.92;62.15;99206.03;2911955;80;20981;-65
2022/08/15 10:39:21;;;;;;;19.35;15.90;;;;;;;30.92;63.59;99204.12;2888091;82;20961;-66
2022/08/15 10:48:38;;;;;;;11.10;8.43;;;;;;;30.74;60.27;99197.97;2913990;81;21011;-64
2022/08/15 10:52:45;;;;;;;12.03;10.65;;;;;;;30.69;61.60;99200.19;2863214;82;20948;-65
2022/08/15 10:56:54;;;;;;;10.48;8.35;;;;;;;30.57;61.95;99200.53;2880853;82;20983;-65
2022/08/15 11:01:26;;;;;;;9.30;8.28;;;;;;;30.59;60.84;99205.17;2856398;82;21035;-65
2022/08/15 11:05:34;;;;;;;12.15;10.88;;;;;;;30.51;64.83;99204.42;2815549;83;20991;-67
2022/08/15 11:09:36;;;;;;;11.83;10.43;;;;;;;30.56;61.95;99205.75;2855680;82;20978;-66
2022/08/15 11:13:58;;;;;;;12.88;9.38;;;;;;;30.46;68.11;99210.75;2860833;82;21062;-65
2022/08/15 11:18:08;;;;;;;11.60;10.40;;;;;;;30.46;61.42;99212.67;2912419;82;20972;-65
2022/08/15 11:22:17;;;;;;;157.78;123.55;;;;;;;30.29;63.54;99197.44;2926391;80;21918;-72
2022/08/15 11:26:24;;;;;;;18.82;16.40;;;;;;;30.14;64.00;99195.59;2897562;79;21015;-71
2022/08/15 11:30:26;;;;;;;16.27;14.55;;;;;;;29.82;67.06;99202.86;2924438;79;21580;-69
2022/08/15 11:34:39;;;;;;;12.53;10.95;;;;;;;29.62;65.08;99197.72;2851616;83;20995;-69
2022/08/15 11:43:28;;;;;;;16.05;12.78;;;;;;;29.16;69.26;99215.05;2884179;81;20967;-65
2022/08/15 11:47:33;;;;;;;14.60;12.18;;;;;;;29.08;69.86;99208.22;2926331;80;21019;-65
2022/08/15 11:51:40;;;;;;;14.30;12.63;;;;;;;29.00;70.50;99199.20;2926127;80;20945;-66
2022/08/15 11:55:45;;;;;;;18.15;14.95;;;;;;;28.89;71.34;99203.87;2895138;81;71081;-91
2022/08/15 12:00:04;;;;;;;14.05;11.18;;;;;;;28.92;71.40;99212.36;2854424;81;21006;-88
2022/08/15 12:04:08;;;;;;;15.20;12.68;;;;;;;28.81;71.83;99223.02;2869409;81;21447;-90
2022/08/15 12:08:09;;;;;;;14.63;12.93;;;;;;;28.67;74.04;99233.66;2834007;81;20987;-90
2022/08/15 12:12:46;;;;;;;15.08;10.55;;;;;;;28.45;73.57;99232.52;2840952;81;20959;-89
2022/08/15 12:16:55;;;;;;;13.18;11.48;;;;;;;28.48;76.42;99234.70;2734704;85;21531;-86
2022/08/15 12:21:04;;;;;;;10.30;9.10;;;;;;;28.49;76.60;99239.09;2735368;85;21066;-89
2022/08/15 12:25:09;;;;;;;8.48;7.55;;;;;;;28.43;75.86;99240.17;2730006;85;21100;-90
2022/08/15 12:29:10;;;;;;;8.30;7.42;;;;;;;28.11;76.19;99242.53;2738273;85;20967;-90
2022/08/15 12:33:13;;;;;;;12.13;7.92;;;;;;;27.84;75.57;99246.23;2738435;85;21021;-91
2022/08/15 12:37:19;;;;;;;10.78;9.05;;;;;;;27.32;77.33;99249.47;2691441;85;20979;-89
2022/08/15 12:41:20;;;;;;;7.92;6.53;;;;;;;26.98;80.15;99268.05;2753402;85;20974;-89
2022/08/15 12:45:22;;;;;;;10.72;6.55;;;;;;;26.76;79.30;99248.45;2758913;84;21037;-89
2022/08/15 12:49:24;;;;;;;8.90;6.20;;;;;;;26.45;79.21;99239.97;2742969;85;21034;-88
2022/08/15 12:53:25;;;;;;;11.75;7.17;;;;;;;26.35;79.72;99237.95;2822575;83;21006;-90
2022/08/15 12:57:28;;;;;;;9.63;6.28;;;;;;;26.25;80.77;99227.77;2876615;81;20981;-88
2022/08/15 13:01:32;;;;;;;6.05;3.72;;;;;;;26.23;81.55;99227.20;2855728;81;21041;-89
2022/08/15 13:05:35;;;;;;;3.37;3.08;;;;;;;26.18;80.86;99218.98;2831983;82;21036;-89
2022/08/15 13:09:37;;;;;;;4.62;3.55;;;;;;;26.16;79.06;99214.30;2856085;82;21017;-88
2022/08/15 13:13:38;;;;;;;5.70;3.58;;;;;;;26.22;79.91;99207.84;2792255;83;21020;-86
2022/08/15 13:17:40;;;;;;;3.02;2.67;;;;;;;26.33;81.11;99191.86;2856381;82;20993;-88
2022/08/15 13:26:02;;;;;;;5.33;3.60;;;;;;;26.50;81.75;99182.75;2856643;82;20965;-91
2022/08/15 13:30:08;;;;;;;4.17;3.45;;;;;;;26.57;82.19;99175.20;2813445;82;21636;-91
2022/08/15 13:34:10;;;;;;;3.75;2.40;;;;;;;26.75;83.97;99175.90;2853832;82;20978;-89
2022/08/15 13:38:12;;;;;;;5.65;2.95;;;;;;;26.90;84.75;99177.39;2861037;81;20963;-90
2022/08/15 13:42:13;;;;;;;4.60;2.92;;;;;;;27.06;83.75;99162.50;2851001;81;20988;-91
2022/08/15 13:46:21;;;;;;;3.45;2.67;;;;;;;27.20;85.33;99160.95;2862349;81;21438;-86
2022/08/15 13:50:22;;;;;;;3.58;2.40;;;;;;;27.57;81.48;99155.72;2856203;81;21025;-88
2022/08/15 13:54:25;;;;;;;3.52;3.22;;;;;;;27.94;81.88;99147.92;2823736;82;21070;-88
2022/08/15 13:58:28;;;;;;;3.30;2.67;;;;;;;28.36;79.61;99138.73;2901090;81;20979;-88
2022/08/15 14:02:30;;;;;;;3.00;2.55;;;;;;;28.67;78.57;99136.55;2879805;80;20983;-87
2022/08/15 14:06:34;;;;;;;4.50;3.17;;;;;;;28.93;73.03;99128.33;2888095;80;21628;-88
2022/08/15 14:10:37;;;;;;;4.47;4.07;;;;;;;29.18;70.52;99127.98;2876292;81;21014;-89
2022/08/15 14:14:39;;;;;;;3.35;3.05;;;;;;;29.38;70.24;99129.86;2903351;81;20995;-88
2022/08/15 14:18:42;;;;;;;6.87;6.20;;;;;;;29.55;68.54;99128.73;2901472;81;21014;-89
2022/08/15 14:22:43;;;;;;;5.35;4.90;;;;;;;29.78;65.21;99122.58;2896953;80;20963;-89
2022/08/15 14:26:49;;;;;;;4.25;3.92;;;;;;;29.96;64.14;99119.45;2923106;80;21452;-88
2022/08/15 14:30:51;;;;;;;12.70;11.85;;;;;;;30.13;65.00;99110.89;2886829;81;20940;-89
2022/08/15 14:34:54;;;;;;;5.22;4.75;;;;;;;30.25;63.80;99109.16;2882003;80;20983;-88
2022/08/15 14:38:56;;;;;;;5.35;4.65;;;;;;;30.39;61.77;99102.47;2919726;80;21001;-88
2022/08/15 14:42:58;;;;;;;5.67;4.28;;;;;;;30.37;63.35;99100.02;2898918;80;21357;-88
2022/08/15 14:47:02;;;;;;;4.25;3.85;;;;;;;30.28;60.74;99098.45;2911754;80;20989;-88
2022/08/15 14:51:04;;;;;;;3.83;3.50;;;;;;;30.20;61.30;99094.93;2905334;80;20994;-88
2022/08/15 14:55:09;;;;;;;5.00;4.60;;;;;;;30.09;61.88;99090.64;2900550;80;20991;-89
2022/08/15 14:59:12;;;;;;;5.00;4.03;;;;;;;30.23;63.09;99080.64;2906069;80;21536;-88
2022/08/15 15:03:15;;;;;;;6.60;5.42;;;;;;;30.30;63.16;99071.55;2908254;80;21007;-89
2022/08/15 15:07:17;;;;;;;5.62;4.85;;;;;;;30.18;62.00;99075.20;2915843;81;20987;-89
2022/08/15 15:11:20;;;;;;;5.05;4.55;;;;;;;30.20;62.73;99082.59;2913252;80;21047;-90
2022/08/15 15:15:21;;;;;;;8.40;6.37;;;;;;;30.10;64.58;99080.75;2907248;80;21034;-90
2022/08/15 15:19:26;;;;;;;6.65;6.05;;;;;;;30.10;65.45;99090.91;2891716;80;21018;-93
2022/08/15 15:23:28;;;;;;;8.10;5.62;;;;;;;30.17;69.40;99092.23;2903495;80;20983;-94
2022/08/15 15:27:29;;;;;;;7.12;6.47;;;;;;;30.15;65.15;99087.55;2902453;81;21002;-92
2022/08/15 15:31:31;;;;;;;7.17;6.30;;;;;;;30.01;65.40;99080.50;2909867;80;21027;-93
2022/08/15 15:35:33;;;;;;;7.12;6.42;;;;;;;29.81;64.67;99088.32;2902715;80;20971;-92
2022/08/15 15:39:35;;;;;;;8.15;6.45;;;;;;;29.75;63.86;99083.95;2910856;80;21014;-92
2022/08/15 15:43:36;;;;;;;7.37;5.80;;;;;;;29.67;65.83;99090.84;2893096;80;20978;-93
2022/08/15 15:47:43;;;;;;;8.03;5.47;;;;;;;29.65;64.53;99094.42;2902505;81;20994;-95
2022/08/15 15:51:44;;;;;;;5.37;4.85;;;;;;;29.67;64.83;99095.52;2908893;81;20988;-91
2022/08/15 15:55:47;;;;;;;6.78;6.15;;;;;;;29.61;64.69;99091.98;2906757;80;21313;-93
2022/08/15 15:59:49;;;;;;;7.55;5.97;;;;;;;29.67;64.73;99085.93;2901224;80;21035;-93
2022/08/15 16:03:51;;;;;;;6.35;5.72;;;;;;;29.64;65.10;99092.78;2901470;80;21518;-94
2022/08/15 16:07:52;;;;;;;6.72;5.85;;;;;;;29.59;64.47;99092.81;2904192;82;20955;-94
2022/08/15 16:12:17;;;;;;;7.58;6.00;;;;;;;29.46;65.68;99092.31;2899127;80;21101;-95
2022/08/15 16:16:30;;;;;;;9.98;5.70;;;;;;;29.47;65.30;99087.11;2840365;81;20963;-93
2022/08/15 16:20:49;;;;;;;6.80;4.50;;;;;;;29.30;66.44;99081.95;2906404;81;21497;-94
2022/08/15 16:25:01;;;;;;;6.65;5.97;;;;;;;29.32;66.71;99086.60;2880497;81;21022;-94
2022/08/15 16:29:08;;;;;;;7.40;5.40;;;;;;;29.13;67.05;99089.16;2873434;81;21085;-95
2022/08/15 16:33:18;;;;;;;9.60;5.90;;;;;;;29.14;67.70;99081.74;2869042;80;21050;-94
2022/08/15 16:37:27;;;;;;;7.22;5.42;;;;;;;29.05;68.90;99084.23;2885262;81;20986;-93
2022/08/15 16:41:56;;;;;;;7.37;6.17;;;;;;;28.92;69.69;99082.37;2884591;80;21034;-94
2022/08/15 16:46:09;;;;;;;9.00;5.92;;;;;;;29.00;70.42;99076.88;2765554;85;21153;-93
2022/08/15 16:50:43;;;;;;;7.65;5.95;;;;;;;28.76;69.70;99080.73;2765868;86;21042;-93
2022/08/15 16:55:16;;;;;;;7.87;7.08;;;;;;;28.77;68.07;99079.63;2731994;86;21054;-91
2022/08/15 16:59:52;;;;;;;6.35;4.78;;;;;;;28.68;66.66;99075.27;2705547;86;21458;-93
2022/08/15 17:04:18;;;;;;;6.67;5.78;;;;;;;28.50;67.47;99078.84;2732474;86;21030;-94
2022/08/15 17:08:43;;;;;;;8.38;7.47;;;;;;;28.32;68.30;99082.95;2655114;89;21075;-92
2022/08/15 17:13:06;;;;;;;7.97;5.60;;;;;;;28.17;70.94;99090.58;2765704;84;21497;-89
2022/08/15 17:18:01;;;;;;;7.28;6.58;;;;;;;28.03;71.01;99093.56;2692752;86;21030;-94
2022/08/15 17:22:16;;;;;;;7.25;6.60;;;;;;;27.74;72.43;99059.36;2698633;85;21479;-93
2022/08/15 17:26:23;;;;;;;7.22;5.65;;;;;;;27.70;72.79;99093.74;2799307;83;21006;-95
2022/08/15 17:30:30;;;;;;;9.30;6.15;;;;;;;27.59;73.20;99093.45;2797043;82;21057;-93
2022/08/15 17:34:33;;;;;;;7.92;6.20;;;;;;;27.39;74.48;99089.53;2820061;82;21030;-95
2022/08/15 17:38:40;;;;;;;7.50;5.53;;;;;;;27.22;74.75;99093.27;2819996;83;21050;-94
2022/08/15 17:42:43;;;;;;;8.88;6.85;;;;;;;27.12;75.23;99098.70;2801655;82;21062;-94
2022/08/15 17:46:50;;;;;;;7.47;6.28;;;;;;;27.05;75.38;99100.83;2820097;83;21089;-93
2022/08/15 17:50:56;;;;;;;7.45;6.10;;;;;;;26.91;76.00;99108.09;2808568;83;20988;-93
2022/08/15 17:55:11;;;;;;;8.00;7.20;;;;;;;26.77;76.23;99115.09;2891310;80;20940;-96
2022/08/15 17:59:16;;;;;;;;;;;;;;;26.58;77.56;99118.22;2866433;81;21006;-94
2022/08/15 18:03:18;;;;;;;9.83;6.20;;;;;;;26.37;78.94;99129.48;2873103;80;20097;-96
2022/08/15 18:07:25;;;;;;;12.63;8.08;;;;;;;26.22;79.79;99132.90;2948112;79;20964;-90
2022/08/15 18:11:40;;;;;;;8.43;7.25;;;;;;;26.18;80.01;99131.78;2898292;80;20999;-89
2022/08/15 18:16:03;;;;;;;9.80;6.80;;;;;;;26.14;80.97;99127.87;2894680;80;21422;-88
2022/08/15 18:20:10;;;;;;;10.35;8.15;;;;;;;26.08;81.64;99127.02;2904133;80;21488;-88
2022/08/15 18:24:37;;;;;;;9.18;7.35;;;;;;;25.99;83.17;99128.02;2917278;80;21485;-88
2022/08/15 18:28:40;;;;;;;9.55;8.33;;;;;;;25.91;83.85;99130.66;2872282;81;21478;-88
2022/08/15 18:32:52;;;;;;;7.97;6.97;;;;;;;25.88;84.18;99140.70;2885859;81;20951;-87
2022/08/15 18:36:57;;;;;;;9.53;7.58;;;;;;;25.90;83.54;99149.97;2882115;81;20994;-87
2022/08/15 18:41:12;;;;;;;11.87;6.73;;;;;;;25.93;83.35;99154.90;2842175;81;21109;-90
2022/08/15 18:45:29;;;;;;;16.77;9.23;;;;;;;26.02;83.48;99162.08;2875420;81;21018;-89
2022/08/15 18:49:33;;;;;;;12.47;8.48;;;;;;;25.80;85.39;99174.66;2885272;81;21057;-89
2022/08/15 18:53:49;;;;;;;8.75;7.78;;;;;;;25.76;84.25;99177.61;2864963;81;20994;-89
2022/08/15 18:57:50;;;;;;;;;;;;;;;25.79;83.23;99189.35;2894965;81;20995;-88
2022/08/15 19:02:03;;;;;;;9.48;7.92;;;;;;;25.86;82.82;99174.71;2873627;81;20094;-91
2022/08/15 19:06:16;;;;;;;13.68;7.37;;;;;;;25.93;82.33;99190.31;2878598;81;21106;-86
2022/08/15 19:10:23;;;;;;;11.60;7.87;;;;;;;25.98;82.48;99190.91;2847079;81;21034;-86
2022/08/15 19:14:34;;;;;;;9.68;7.47;;;;;;;26.02;81.71;99192.88;2875041;81;21621;-87
2022/08/15 19:19:08;;;;;;;10.58;7.53;;;;;;;26.08;80.79;99196.49;2833230;82;21011;-85
2022/08/15 19:23:11;;;;;;;13.00;6.95;;;;;;;26.07;80.81;99194.30;2858564;82;20991;-86
2022/08/15 19:27:51;;;;;;;8.60;7.75;;;;;;;25.98;81.36;99191.75;2857726;81;21066;-86
2022/08/15 19:32:31;;;;;;;7.85;6.47;;;;;;;25.91;82.22;99191.11;2838654;82;20983;-86
2022/08/15 19:36:53;;;;;;;19.77;7.45;;;;;;;25.87;81.86;99177.72;2865120;80;21002;-86
2022/08/15 19:41:23;;;;;;;9.25;7.97;;;;;;;25.85;81.37;99186.69;2800933;81;21019;-87
2022/08/15 19:45:48;;;;;;;11.75;8.15;;;;;;;25.85;81.40;99195.70;2852256;81;21011;-86
2022/08/15 19:54:45;;;;;;;6.85;5.53;;;;;;;25.70;83.54;99205.83;2857903;82;21055;-86
2022/08/15 19:59:16;;;;;;;6.17;5.30;;;;;;;25.55;82.84;99215.99;2811290;82;21000;-86
2022/08/15 20:03:47;;;;;;;6.80;5.78;;;;;;;25.41;82.65;99222.83;2823877;83;21062;-86
2022/08/15 20:08:17;;;;;;;6.33;5.20;;;;;;;25.19;82.86;99231.24;2808314;83;21019;-86
2022/08/15 20:12:39;;;;;;;15.25;7.62;;;;;;;25.04;82.57;99218.75;2828155;82;21011;-85
2022/08/15 20:16:56;;;;;;;7.80;5.62;;;;;;;24.99;83.12;99233.64;2831970;82;21031;-86
2022/08/15 20:21:07;;;;;;;8.48;6.55;;;;;;;24.95;83.86;99237.38;2830008;82;20996;-87
2022/08/15 20:25:36;;;;;;;7.58;5.10;;;;;;;24.91;84.05;99244.39;2797711;83;21006;-86
2022/08/15 20:29:55;;;;;;;6.67;5.33;;;;;;;24.87;83.68;99239.97;2824040;83;21012;-86
2022/08/15 20:34:00;;;;;;;5.95;5.37;;;;;;;24.81;83.20;99249.13;2811505;83;20995;-86
2022/08/15 20:38:07;;;;;;;8.48;5.70;;;;;;;24.78;82.43;99250.98;2803698;83;21052;-86
2022/08/15 20:42:25;;;;;;;7.90;5.17;;;;;;;24.75;82.04;99251.41;2812669;83;21036;-86
2022/08/15 20:46:44;;;;;;;6.72;4.25;;;;;;;24.72;82.73;99249.19;2839031;82;21026;-87
2022/08/15 20:50:50;;;;;;;6.28;5.15;;;;;;;24.68;82.91;99237.45;2836037;82;21051;-87
2022/08/15 20:54:54;;;;;;;6.60;5.37;;;;;;;24.65;83.12;99235.73;2809910;83;20969;-85